createdAt,value
2024-04-08T00:00:54.977Z,139.73
2024-04-08T00:01:54.982Z,139.49
2024-04-08T00:03:09.682Z,140.36
2024-04-08T00:03:54.982Z,140.52
2024-04-08T00:04:55.011Z,140.70
2024-04-08T00:05:54.991Z,140.72
2024-04-08T00:06:54.993Z,140.55
2024-04-08T00:07:54.996Z,138.70
2024-04-08T00:08:54.997Z,140.89
2024-04-08T00:09:54.997Z,140.71
2024-04-08T00:10:54.998Z,141.71
2024-04-08T00:11:55.003Z,140.84
2024-04-08T00:12:55.009Z,140.71
2024-04-08T00:13:55.030Z,140.21
2024-04-08T00:14:55.036Z,139.20
2024-04-08T00:15:55.016Z,139.17
2024-04-08T00:16:55.023Z,141.00
2024-04-08T00:17:55.040Z,139.89
2024-04-08T00:18:57.681Z,140.41
2024-04-08T00:19:55.077Z,140.47
2024-04-08T00:20:55.025Z,140.90
2024-04-08T00:21:55.024Z,140.48
2024-04-08T00:22:55.022Z,139.74
2024-04-08T00:23:55.028Z,142.54
2024-04-08T00:25:16.040Z,140.44
2024-04-08T00:25:55.036Z,140.66
2024-04-08T00:26:55.036Z,141.32
2024-04-08T00:28:09.693Z,142.48
2024-04-08T00:28:55.035Z,140.70
2024-04-08T00:29:55.035Z,141.67
2024-04-08T00:31:21.189Z,142.68
2024-04-08T00:31:55.046Z,140.76
2024-04-08T00:32:55.110Z,142.36
2024-04-08T00:33:55.045Z,143.52
2024-04-08T00:34:55.053Z,146.07
2024-04-08T00:35:55.049Z,147.56
2024-04-08T00:36:55.070Z,148.06
2024-04-08T00:37:55.061Z,145.50
2024-04-08T00:38:55.055Z,143.87
2024-04-08T00:39:55.071Z,143.75
2024-04-08T00:40:55.092Z,141.66
2024-04-08T00:41:55.128Z,142.70
2024-04-08T00:42:55.161Z,139.03
2024-04-08T00:43:55.184Z,139.61
2024-04-08T00:44:55.202Z,138.54
2024-04-08T00:45:55.232Z,137.36
2024-04-08T00:46:55.240Z,139.71
2024-04-08T00:47:55.390Z,135.30
2024-04-08T00:48:55.260Z,136.80
2024-04-08T00:50:09.700Z,136.23
2024-04-08T00:50:55.379Z,139.74
2024-04-08T00:51:55.376Z,139.99
2024-04-08T00:52:55.420Z,139.91
2024-04-08T00:53:55.434Z,134.30
2024-04-08T00:54:55.454Z,133.61
2024-04-08T00:56:27.230Z,133.15
2024-04-08T00:56:55.479Z,133.31
2024-04-08T00:57:55.482Z,134.21
2024-04-08T00:58:55.486Z,136.45
2024-04-08T00:59:55.529Z,136.89
2024-04-08T01:00:55.491Z,138.40
2024-04-08T01:01:55.520Z,134.61
2024-04-08T01:02:55.506Z,132.11
2024-04-08T01:03:55.504Z,130.55
2024-04-08T01:04:55.524Z,129.08
2024-04-08T01:05:55.512Z,126.69
2024-04-08T01:06:55.506Z,126.08
2024-04-08T01:07:55.510Z,127.72
2024-04-08T01:08:55.530Z,121.57
2024-04-08T01:09:55.515Z,124.73
2024-04-08T01:10:55.526Z,126.53
2024-04-08T01:11:55.513Z,126.25
2024-04-08T01:12:55.545Z,128.62
2024-04-08T01:13:55.524Z,126.68
2024-04-08T01:14:55.529Z,123.48
2024-04-08T01:15:55.532Z,124.39
2024-04-08T01:16:55.526Z,123.18
2024-04-08T01:18:10.232Z,122.55
2024-04-08T01:18:55.520Z,122.69
2024-04-08T01:19:55.524Z,123.12
2024-04-08T01:21:16.545Z,123.24
2024-04-08T01:21:55.540Z,122.80
2024-04-08T01:22:55.549Z,123.67
2024-04-08T01:24:16.550Z,125.45
2024-04-08T01:24:55.541Z,122.88
2024-04-08T01:25:55.542Z,123.68
2024-04-08T01:26:55.552Z,124.33
2024-04-08T01:27:55.542Z,125.40
2024-04-08T01:28:55.547Z,122.85
2024-04-08T01:29:55.557Z,121.92
2024-04-08T01:30:55.584Z,118.73
2024-04-08T01:31:55.554Z,121.55
2024-04-08T01:32:55.559Z,113.87
2024-04-08T01:33:55.597Z,113.55
2024-04-08T01:34:55.558Z,116.10
2024-04-08T01:35:55.558Z,109.48
2024-04-08T01:36:55.562Z,113.23
2024-04-08T01:37:55.565Z,112.71
2024-04-08T01:38:55.560Z,111.11
2024-04-08T01:39:55.559Z,109.76
2024-04-08T01:40:55.556Z,112.30
2024-04-08T01:41:55.572Z,110.48
2024-04-08T01:43:10.226Z,109.62
2024-04-08T01:43:55.564Z,109.86
2024-04-08T01:44:55.565Z,110.56
2024-04-08T01:46:10.221Z,111.55
2024-04-08T01:46:55.572Z,109.86
2024-04-08T01:47:55.643Z,110.54
2024-04-08T01:49:10.228Z,112.61
2024-04-08T01:49:55.575Z,109.95
2024-04-08T01:50:55.571Z,111.34
2024-04-08T01:51:55.579Z,113.82
2024-04-08T01:52:55.591Z,115.59
2024-04-08T01:53:55.575Z,117.21
2024-04-08T01:54:55.584Z,116.06
2024-04-08T01:55:55.581Z,114.30
2024-04-08T01:56:55.584Z,113.90
2024-04-08T01:57:55.642Z,112.97
2024-04-08T01:58:55.582Z,110.46
2024-04-08T01:59:55.592Z,112.82
2024-04-08T02:00:55.586Z,108.35
2024-04-08T02:01:55.595Z,107.07
2024-04-08T02:02:55.603Z,107.90
2024-04-08T02:03:55.599Z,107.97
2024-04-08T02:05:02.238Z,106.73
2024-04-08T02:05:55.606Z,107.00
2024-04-08T02:06:55.618Z,107.92
2024-04-08T02:07:56.232Z,108.63
2024-04-08T02:08:55.612Z,109.74
2024-04-08T02:09:55.616Z,110.41
2024-04-08T02:11:10.231Z,109.93
2024-04-08T02:11:55.825Z,110.22
2024-04-08T02:12:55.829Z,110.32
2024-04-08T02:14:10.743Z,110.50
2024-04-08T02:14:55.846Z,110.17
2024-04-08T02:15:55.832Z,110.54
2024-04-08T02:17:16.842Z,110.60
2024-04-08T02:17:55.933Z,110.30
2024-04-08T02:18:55.848Z,112.18
2024-04-08T02:19:55.854Z,113.11
2024-04-08T02:20:55.850Z,114.91
2024-04-08T02:21:55.858Z,116.27
2024-04-08T02:22:55.852Z,109.52
2024-04-08T02:23:55.863Z,111.48
2024-04-08T02:24:55.880Z,106.43
2024-04-08T02:25:55.862Z,106.62
2024-04-08T02:26:55.887Z,106.90
2024-04-08T02:27:55.863Z,101.49
2024-04-08T02:28:56.739Z,103.19
2024-04-08T02:29:56.267Z,98.57
2024-04-08T02:30:55.894Z,101.10
2024-04-08T02:31:55.888Z,99.59
2024-04-08T02:32:55.950Z,97.45
2024-04-08T02:33:55.891Z,103.63
2024-04-08T02:34:55.886Z,102.09
2024-04-08T02:35:55.903Z,103.01
2024-04-08T02:36:55.897Z,102.44
2024-04-08T02:37:55.887Z,102.53
2024-04-08T02:39:16.904Z,98.74
2024-04-08T02:39:55.908Z,99.00
2024-04-08T02:40:55.906Z,100.24
2024-04-08T02:42:23.746Z,101.15
2024-04-08T02:42:55.910Z,99.07
2024-04-08T02:43:55.913Z,101.11
2024-04-08T02:44:55.925Z,104.67
2024-04-08T02:45:55.917Z,110.18
2024-04-08T02:46:55.923Z,117.43
2024-04-08T02:47:56.022Z,120.39
2024-04-08T02:48:55.920Z,116.46
2024-04-08T02:49:55.932Z,115.21
2024-04-08T02:50:55.918Z,118.95
2024-04-08T02:51:55.956Z,115.44
2024-04-08T02:52:55.936Z,113.96
2024-04-08T02:53:55.940Z,118.27
2024-04-08T02:54:55.951Z,116.66
2024-04-08T02:55:55.932Z,115.33
2024-04-08T02:56:55.941Z,116.79
2024-04-08T02:57:59.263Z,115.70
2024-04-08T02:58:55.938Z,115.80
2024-04-08T02:59:55.948Z,115.84
2024-04-08T03:00:55.949Z,117.25
2024-04-08T03:01:55.948Z,111.35
2024-04-08T03:02:55.955Z,117.88
2024-04-08T03:04:02.750Z,111.27
2024-04-08T03:04:55.950Z,111.46
2024-04-08T03:05:55.948Z,111.72
2024-04-08T03:06:55.953Z,112.04
2024-04-08T03:07:55.960Z,111.77
2024-04-08T03:08:56.041Z,103.42
2024-04-08T03:10:16.964Z,106.60
2024-04-08T03:10:55.955Z,106.77
2024-04-08T03:11:56.025Z,107.18
2024-04-08T03:12:55.970Z,108.03
2024-04-08T03:13:55.960Z,109.01
2024-04-08T03:14:55.995Z,106.90
2024-04-08T03:15:55.972Z,108.68
2024-04-08T03:16:55.968Z,106.38
2024-04-08T03:17:55.973Z,108.91
2024-04-08T03:18:55.971Z,106.02
2024-04-08T03:19:55.997Z,104.58
2024-04-08T03:20:55.969Z,106.84
2024-04-08T03:21:55.972Z,101.40
2024-04-08T03:22:55.972Z,104.03
2024-04-08T03:23:55.975Z,103.19
2024-04-08T03:24:55.971Z,107.40
2024-04-08T03:25:55.977Z,100.44
2024-04-08T03:26:55.984Z,107.43
2024-04-08T03:27:55.986Z,102.22
2024-04-08T03:29:10.766Z,105.22
2024-04-08T03:29:56.007Z,105.41
2024-04-08T03:30:55.989Z,106.49
2024-04-08T03:32:02.766Z,106.84
2024-04-08T03:32:56.019Z,105.68
2024-04-08T03:33:55.988Z,105.97
2024-04-08T03:34:56.021Z,108.21
2024-04-08T03:35:56.078Z,111.13
2024-04-08T03:36:56.041Z,114.98
2024-04-08T03:37:55.998Z,119.42
2024-04-08T03:38:56.029Z,115.20
2024-04-08T03:39:56.004Z,120.84
2024-04-08T03:40:56.007Z,117.46
2024-04-08T03:41:56.015Z,123.52
2024-04-08T03:42:56.013Z,125.91
2024-04-08T03:43:56.007Z,127.14
2024-04-08T03:44:56.068Z,126.37
2024-04-08T03:45:56.015Z,122.15
2024-04-08T03:46:56.025Z,123.07
2024-04-08T03:47:56.083Z,126.43
2024-04-08T03:48:56.020Z,121.96
2024-04-08T03:49:56.042Z,126.69
2024-04-08T03:50:56.059Z,126.04
2024-04-08T03:51:56.020Z,127.32
2024-04-08T03:52:56.024Z,130.58
2024-04-08T03:53:56.091Z,129.38
2024-04-08T03:54:56.050Z,133.32
2024-04-08T03:55:56.028Z,135.71
2024-04-08T03:56:56.050Z,136.03
2024-04-08T03:57:56.029Z,133.76
2024-04-08T03:58:56.036Z,131.89
2024-04-08T04:00:20.379Z,133.82
2024-04-08T04:00:56.063Z,134.04
2024-04-08T04:01:56.041Z,135.38
2024-04-08T04:02:56.063Z,138.23
2024-04-08T04:03:56.043Z,141.18
2024-04-08T04:04:56.050Z,143.89
2024-04-08T04:05:56.091Z,149.04
2024-04-08T04:06:56.055Z,146.45
2024-04-08T04:07:56.059Z,139.58
2024-04-08T04:08:56.081Z,137.70
2024-04-08T04:09:56.057Z,139.56
2024-04-08T04:10:56.070Z,136.16
2024-04-08T04:11:56.136Z,132.86
2024-04-08T04:12:56.065Z,133.65
2024-04-08T04:13:56.064Z,132.97
2024-04-08T04:14:56.109Z,128.95
2024-04-08T04:16:03.232Z,50.00
2024-04-08T04:17:03.230Z,50.00
2024-04-08T04:18:03.323Z,50.00
2024-04-08T04:19:03.235Z,50.00
2024-04-08T04:20:03.266Z,50.00
2024-04-08T04:21:03.247Z,50.00
2024-04-08T04:22:17.860Z,51.40
2024-04-08T04:23:03.457Z,51.57
2024-04-08T04:24:03.509Z,52.44
2024-04-08T04:25:11.350Z,52.74
2024-04-08T04:26:03.490Z,51.60
2024-04-08T04:27:03.515Z,51.79
2024-04-08T04:28:27.347Z,50.76
2024-04-08T04:29:03.501Z,51.56
2024-04-08T04:30:03.532Z,52.15
2024-04-08T04:31:31.681Z,50.00
2024-04-08T04:32:10.686Z,50.00
2024-04-08T04:33:10.693Z,50.00
2024-04-08T04:34:31.691Z,50.00
2024-04-08T04:35:10.713Z,50.00
2024-04-08T04:36:10.692Z,50.00
2024-04-08T04:37:10.706Z,50.00
2024-04-08T04:38:10.700Z,50.00
2024-04-08T04:39:10.723Z,50.00
2024-04-08T04:40:10.723Z,48.62
2024-04-08T04:41:10.704Z,52.77
2024-04-08T04:42:10.704Z,54.19
2024-04-08T04:43:10.701Z,49.89
2024-04-08T04:44:10.702Z,57.20
2024-04-08T04:45:10.723Z,54.53
2024-04-08T04:46:10.723Z,52.41
2024-04-08T04:47:10.719Z,53.00
2024-04-08T04:48:10.744Z,57.72
2024-04-08T04:49:10.712Z,50.47
2024-04-08T04:50:10.747Z,52.96
2024-04-08T04:51:10.720Z,53.49
2024-04-08T04:52:10.719Z,51.42
2024-04-08T04:53:10.721Z,58.58
2024-04-08T04:54:10.766Z,53.32
2024-04-08T04:55:10.741Z,53.24
2024-04-08T04:56:31.731Z,50.99
2024-04-08T04:57:10.726Z,51.25
2024-04-08T04:58:10.727Z,52.95
2024-04-08T04:59:31.740Z,56.50
2024-04-08T05:00:10.768Z,51.42
2024-04-08T05:01:10.732Z,53.00
2024-04-08T05:02:14.145Z,55.45
2024-04-08T05:03:11.742Z,51.71
2024-04-08T05:04:10.751Z,54.42
2024-04-08T05:05:10.827Z,55.52
2024-04-08T05:06:10.765Z,58.42
2024-04-08T05:07:10.759Z,61.49
2024-04-08T05:08:10.769Z,64.58
2024-04-08T05:09:10.752Z,67.42
2024-04-08T05:10:10.764Z,63.75
2024-04-08T05:11:10.859Z,65.42
2024-04-08T05:12:10.775Z,69.57
2024-04-08T05:13:10.773Z,64.35
2024-04-08T05:14:10.780Z,75.57
2024-04-08T05:15:10.787Z,65.26
2024-04-08T05:16:10.826Z,68.61
2024-04-08T05:17:10.775Z,65.04
2024-04-08T05:18:10.888Z,65.68
2024-04-08T05:19:10.777Z,64.67
2024-04-08T05:20:10.794Z,66.26
2024-04-08T05:21:25.302Z,64.60
2024-04-08T05:22:10.908Z,64.62
2024-04-08T05:23:10.929Z,64.85
2024-04-08T05:24:25.816Z,61.08
2024-04-08T05:25:10.970Z,64.68
2024-04-08T05:26:10.960Z,64.75
2024-04-08T05:27:37.320Z,65.19
2024-04-08T05:28:10.969Z,64.81
2024-04-08T05:29:10.959Z,66.26
2024-04-08T05:30:11.353Z,68.77
2024-04-08T05:31:10.975Z,72.30
2024-04-08T05:32:11.034Z,73.81
2024-04-08T05:33:11.133Z,78.99
2024-04-08T05:34:11.071Z,84.69
2024-04-08T05:35:11.349Z,86.80
2024-04-08T05:36:11.136Z,93.89
2024-04-08T05:37:11.170Z,99.66
2024-04-08T05:38:11.218Z,110.00
2024-04-08T05:39:11.268Z,113.74
2024-04-08T05:40:11.306Z,121.43
2024-04-08T05:41:11.817Z,122.17
2024-04-08T05:42:11.833Z,131.35
2024-04-08T05:43:11.464Z,135.75
2024-04-08T05:44:11.530Z,140.06
2024-04-08T05:45:11.714Z,149.63
2024-04-08T05:46:26.316Z,151.89
2024-04-08T05:47:11.825Z,152.24
2024-04-08T05:48:11.690Z,154.09
2024-04-08T05:49:11.631Z,159.04
2024-04-08T05:50:11.635Z,167.93
2024-04-08T05:51:11.641Z,182.77
2024-04-08T05:52:43.331Z,191.94
2024-04-08T05:53:11.644Z,192.21
2024-04-08T05:54:11.642Z,194.57
2024-04-08T05:55:11.642Z,199.85
2024-04-08T05:56:11.667Z,211.89
2024-04-08T05:57:11.660Z,229.45
2024-04-08T05:58:11.645Z,200.11
2024-04-08T05:59:11.662Z,198.72
2024-04-08T06:00:11.652Z,196.30
2024-04-08T06:01:11.676Z,191.00
2024-04-08T06:02:11.663Z,192.35
2024-04-08T06:03:11.655Z,195.72
2024-04-08T06:04:11.656Z,200.00
2024-04-08T06:05:11.654Z,197.89
2024-04-08T06:06:11.656Z,199.76
2024-04-08T06:07:11.663Z,199.66
2024-04-08T06:08:11.670Z,200.00
2024-04-08T06:09:11.674Z,199.95
2024-04-08T06:10:11.673Z,200.00
2024-04-08T06:11:11.723Z,211.36
2024-04-08T06:12:11.716Z,205.30
2024-04-08T06:13:11.702Z,201.37
2024-04-08T06:14:18.327Z,200.77
2024-04-08T06:15:11.691Z,201.00
2024-04-08T06:16:11.680Z,202.76
2024-04-08T06:17:32.677Z,205.51
2024-04-08T06:18:11.909Z,201.11
2024-04-08T06:19:11.673Z,202.68
2024-04-08T06:20:26.343Z,204.20
2024-04-08T06:21:11.841Z,201.22
2024-04-08T06:22:11.674Z,203.14
2024-04-08T06:23:11.691Z,207.38
2024-04-08T06:24:11.681Z,213.65
2024-04-08T06:25:11.687Z,214.29
2024-04-08T06:26:11.685Z,200.40
2024-04-08T06:27:11.700Z,195.94
2024-04-08T06:28:11.688Z,190.12
2024-04-08T06:29:11.695Z,185.06
2024-04-08T06:30:11.687Z,180.95
2024-04-08T06:31:11.844Z,174.81
2024-04-08T06:32:11.687Z,171.82
2024-04-08T06:33:11.708Z,168.94
2024-04-08T06:34:11.699Z,163.21
2024-04-08T06:35:11.793Z,159.77
2024-04-08T06:36:11.844Z,157.08
2024-04-08T06:37:11.687Z,158.52
2024-04-08T06:38:11.688Z,159.15
2024-04-08T06:39:11.731Z,161.61
2024-04-08T06:40:11.705Z,162.67
2024-04-08T06:41:11.846Z,163.88
2024-04-08T06:42:32.701Z,164.30
2024-04-08T06:43:11.709Z,164.51
2024-04-08T06:44:11.706Z,165.72
2024-04-08T06:45:26.347Z,167.72
2024-04-08T06:46:11.704Z,164.73
2024-04-08T06:47:11.716Z,167.59
2024-04-08T06:48:39.349Z,172.53
2024-04-08T06:49:11.718Z,164.73
2024-04-08T06:50:11.708Z,168.27
2024-04-08T06:51:11.775Z,174.24
2024-04-08T06:52:11.722Z,182.18
2024-04-08T06:53:11.713Z,192.84
2024-04-08T06:54:11.718Z,195.47
2024-04-08T06:55:11.724Z,200.00
2024-04-08T06:56:11.860Z,199.55
2024-04-08T06:57:11.727Z,195.90
2024-04-08T06:58:12.059Z,193.71
2024-04-08T06:59:11.724Z,189.93
2024-04-08T07:00:11.819Z,185.07
2024-04-08T07:01:11.755Z,181.86
2024-04-08T07:02:11.729Z,178.80
2024-04-08T07:03:11.734Z,174.39
2024-04-08T07:04:11.734Z,171.88
2024-04-08T07:05:11.755Z,169.18
2024-04-08T07:06:11.738Z,166.61
2024-04-08T07:07:26.355Z,169.16
2024-04-08T07:08:15.542Z,169.28
2024-04-08T07:09:12.007Z,170.21
2024-04-08T07:10:26.861Z,172.16
2024-04-08T07:11:12.357Z,169.43
2024-04-08T07:12:12.000Z,170.76
2024-04-08T07:13:47.854Z,173.93
2024-04-08T07:14:12.013Z,169.29
2024-04-08T07:15:12.012Z,169.76
2024-04-08T07:16:12.028Z,163.84
2024-04-08T07:17:12.035Z,152.05
2024-04-08T07:18:12.139Z,139.52
2024-04-08T07:19:12.023Z,130.27
2024-04-08T07:20:12.023Z,123.86
2024-04-08T07:21:12.039Z,118.98
2024-04-08T07:22:12.021Z,113.38
2024-04-08T07:23:12.025Z,109.21
2024-04-08T07:24:12.021Z,105.58
2024-04-08T07:25:12.021Z,101.14
2024-04-08T07:26:12.427Z,100.41
2024-04-08T07:27:12.039Z,98.67
2024-04-08T07:28:12.039Z,98.41
2024-04-08T07:29:12.033Z,97.56
2024-04-08T07:30:12.113Z,95.51
2024-04-08T07:31:12.371Z,92.97
2024-04-08T07:32:12.043Z,93.83
2024-04-08T07:33:12.214Z,94.71
2024-04-08T07:34:12.044Z,95.76
2024-04-08T07:35:14.869Z,98.13
2024-04-08T07:36:12.048Z,98.18
2024-04-08T07:37:12.048Z,98.48
2024-04-08T07:38:26.867Z,99.07
2024-04-08T07:39:13.323Z,98.40
2024-04-08T07:40:12.051Z,98.77
2024-04-08T07:41:30.384Z,100.87
2024-04-08T07:42:12.065Z,98.57
2024-04-08T07:43:12.047Z,100.36
2024-04-08T07:44:12.077Z,103.65
2024-04-08T07:45:12.086Z,108.83
2024-04-08T07:46:12.075Z,114.60
2024-04-08T07:47:12.070Z,115.88
2024-04-08T07:48:12.148Z,116.43
2024-04-08T07:49:12.064Z,115.37
2024-04-08T07:50:12.059Z,117.99
2024-04-08T07:51:12.077Z,117.53
2024-04-08T07:52:12.061Z,118.33
2024-04-08T07:53:12.069Z,118.05
2024-04-08T07:54:12.142Z,113.28
2024-04-08T07:55:12.068Z,113.96
2024-04-08T07:56:12.076Z,109.63
2024-04-08T07:57:18.885Z,109.88
2024-04-08T07:58:12.072Z,110.00
2024-04-08T07:59:12.072Z,110.53
2024-04-08T08:00:12.139Z,111.57
2024-04-08T08:01:12.089Z,114.17
2024-04-08T08:02:12.114Z,117.07
2024-04-08T08:03:33.883Z,118.03
2024-04-08T08:04:12.086Z,118.18
2024-04-08T08:05:12.092Z,118.85
2024-04-08T08:06:40.882Z,119.87
2024-04-08T08:07:12.100Z,118.25
2024-04-08T08:08:12.095Z,119.47
2024-04-08T08:09:12.201Z,121.25
2024-04-08T08:10:12.095Z,123.81
2024-04-08T08:11:12.400Z,126.14
2024-04-08T08:12:12.163Z,127.49
2024-04-08T08:13:12.642Z,126.76
2024-04-08T08:14:12.104Z,126.54
2024-04-08T08:15:12.140Z,125.14
2024-04-08T08:16:12.118Z,125.40
2024-04-08T08:17:12.399Z,124.88
2024-04-08T08:18:12.246Z,125.03
2024-04-08T08:19:12.367Z,122.07
2024-04-08T08:20:12.339Z,121.71
2024-04-08T08:21:12.434Z,119.97
2024-04-08T08:22:12.903Z,116.32
2024-04-08T08:23:12.536Z,110.62
2024-04-08T08:24:12.595Z,105.52
2024-04-08T08:25:27.425Z,102.22
2024-04-08T08:26:12.631Z,102.29
2024-04-08T08:27:12.629Z,101.75
2024-04-08T08:28:12.550Z,94.65
2024-04-08T08:29:12.555Z,90.78
2024-04-08T08:30:12.577Z,86.86
2024-04-08T08:31:36.388Z,84.38
2024-04-08T08:32:12.567Z,84.49
2024-04-08T08:33:12.632Z,84.64
2024-04-08T08:34:33.580Z,82.57
2024-04-08T08:35:12.574Z,84.46
2024-04-08T08:36:12.675Z,84.14
2024-04-08T08:37:12.901Z,80.97
2024-04-08T08:38:12.580Z,78.22
2024-04-08T08:39:12.619Z,74.66
2024-04-08T08:40:12.607Z,68.98
2024-04-08T08:41:12.894Z,67.48
2024-04-08T08:42:12.586Z,65.65
2024-04-08T08:43:12.581Z,67.01
2024-04-08T08:44:12.592Z,66.51
2024-04-08T08:45:12.691Z,69.83
2024-04-08T08:46:12.629Z,74.80
2024-04-08T08:47:12.591Z,78.27
2024-04-08T08:48:12.614Z,81.89
2024-04-08T08:49:12.597Z,86.47
2024-04-08T08:50:15.403Z,91.11
2024-04-08T08:51:12.971Z,91.32
2024-04-08T08:52:12.619Z,92.27
2024-04-08T08:53:15.403Z,95.20
2024-04-08T08:54:12.640Z,91.62
2024-04-08T08:55:12.618Z,94.02
2024-04-08T08:56:33.624Z,99.21
2024-04-08T08:57:12.680Z,91.66
2024-04-08T08:58:12.629Z,94.94
2024-04-08T08:59:33.639Z,101.75
2024-04-08T09:00:12.668Z,91.88
2024-04-08T09:01:12.632Z,96.38
2024-04-08T09:02:12.625Z,104.98
2024-04-08T09:03:12.699Z,117.71
2024-04-08T09:04:12.622Z,134.61
2024-04-08T09:05:12.647Z,143.29
2024-04-08T09:06:12.773Z,144.56
2024-04-08T09:07:12.729Z,145.81
2024-04-08T09:08:12.627Z,146.73
2024-04-08T09:09:12.842Z,146.74
2024-04-08T09:10:12.635Z,147.66
2024-04-08T09:11:12.645Z,148.79
2024-04-08T09:12:12.701Z,148.86
2024-04-08T09:13:12.646Z,148.52
2024-04-08T09:14:12.635Z,145.93
2024-04-08T09:15:12.796Z,146.34
2024-04-08T09:16:12.915Z,146.83
2024-04-08T09:17:12.658Z,145.93
2024-04-08T09:18:12.686Z,144.44
2024-04-08T09:19:12.679Z,145.98
2024-04-08T09:20:12.661Z,145.86
2024-04-08T09:21:30.913Z,145.65
2024-04-08T09:22:12.656Z,145.85
2024-04-08T09:23:12.663Z,146.58
2024-04-08T09:24:27.456Z,147.28
2024-04-08T09:25:12.688Z,145.90
2024-04-08T09:26:12.939Z,146.66
2024-04-08T09:27:54.376Z,148.34
2024-04-08T09:28:13.681Z,145.82
2024-04-08T09:29:12.686Z,147.05
2024-04-08T09:30:12.688Z,147.35
2024-04-08T09:31:12.936Z,144.31
2024-04-08T09:32:12.705Z,139.27
2024-04-08T09:33:12.954Z,137.25
2024-04-08T09:34:12.678Z,134.68
2024-04-08T09:35:12.686Z,132.97
2024-04-08T09:36:13.019Z,132.75
2024-04-08T09:37:12.683Z,132.84
2024-04-08T09:38:12.690Z,132.84
2024-04-08T09:39:12.718Z,133.75
2024-04-08T09:40:12.714Z,134.14
2024-04-08T09:41:12.938Z,135.10
2024-04-08T09:42:12.716Z,136.29
2024-04-08T09:43:14.283Z,137.20
2024-04-08T09:44:12.709Z,138.65
2024-04-08T09:45:12.815Z,139.18
2024-04-08T09:46:23.436Z,138.84
2024-04-08T09:47:12.704Z,138.96
2024-04-08T09:48:12.731Z,139.41
2024-04-08T09:49:23.611Z,139.78
2024-04-08T09:50:13.911Z,139.05
2024-04-08T09:51:13.062Z,139.89
2024-04-08T09:52:27.934Z,140.86
2024-04-08T09:53:12.958Z,139.07
2024-04-08T09:54:12.986Z,139.89
2024-04-08T09:55:12.940Z,141.11
2024-04-08T09:56:13.002Z,142.88
2024-04-08T09:57:12.981Z,145.50
2024-04-08T09:58:12.947Z,144.05
2024-04-08T09:59:12.954Z,147.53
2024-04-08T10:00:13.046Z,144.88
2024-04-08T10:01:12.988Z,145.02
2024-04-08T10:02:12.956Z,145.40
2024-04-08T10:03:13.050Z,146.72
2024-04-08T10:04:12.954Z,149.34
2024-04-08T10:05:12.953Z,149.88
2024-04-08T10:06:13.531Z,149.91
2024-04-08T10:07:13.007Z,147.84
2024-04-08T10:08:12.980Z,144.58
2024-04-08T10:09:12.990Z,145.03
2024-04-08T10:10:12.961Z,142.52
2024-04-08T10:11:13.983Z,141.96
2024-04-08T10:12:13.039Z,140.06
2024-04-08T10:13:14.553Z,139.25
2024-04-08T10:14:27.949Z,134.66
2024-04-08T10:15:13.092Z,136.84
2024-04-08T10:16:12.969Z,123.52
2024-04-08T10:17:27.938Z,119.17
2024-04-08T10:18:13.132Z,121.77
2024-04-08T10:19:12.983Z,112.94
2024-04-08T10:20:44.094Z,103.24
2024-04-08T10:21:13.535Z,121.12
2024-04-08T10:22:12.980Z,114.07
2024-04-08T10:23:14.943Z,105.02
2024-04-08T10:24:13.018Z,100.86
2024-04-08T10:25:12.991Z,99.29
2024-04-08T10:26:13.459Z,96.42
2024-04-08T10:27:13.999Z,98.72
2024-04-08T10:28:12.995Z,102.20
2024-04-08T10:29:13.000Z,105.47
2024-04-08T10:30:13.094Z,108.87
2024-04-08T10:31:13.008Z,113.38
2024-04-08T10:32:12.995Z,119.27
2024-04-08T10:33:13.086Z,125.23
2024-04-08T10:34:13.009Z,129.17
2024-04-08T10:35:13.000Z,134.68
2024-04-08T10:36:16.487Z,135.53
2024-04-08T10:37:13.001Z,139.96
2024-04-08T10:38:13.014Z,143.57
2024-04-08T10:39:27.959Z,147.57
2024-04-08T10:40:13.013Z,147.81
2024-04-08T10:41:13.018Z,148.75
2024-04-08T10:42:34.040Z,150.55
2024-04-08T10:43:13.027Z,147.95
2024-04-08T10:44:13.026Z,149.99
2024-04-08T10:45:13.121Z,153.04
2024-04-08T10:46:13.050Z,157.80
2024-04-08T10:47:13.041Z,161.13
2024-04-08T10:48:13.178Z,163.11
2024-04-08T10:49:13.026Z,162.84
2024-04-08T10:50:13.061Z,163.34
2024-04-08T10:51:13.141Z,164.74
2024-04-08T10:52:13.043Z,164.76
2024-04-08T10:53:13.038Z,166.04
2024-04-08T10:54:13.180Z,166.40
2024-04-08T10:55:13.055Z,166.30
2024-04-08T10:56:13.064Z,168.07
2024-04-08T10:57:13.132Z,169.47
2024-04-08T10:58:13.046Z,169.94
2024-04-08T10:59:13.040Z,168.94
2024-04-08T11:00:14.021Z,169.00
2024-04-08T11:01:13.052Z,169.33
2024-04-08T11:02:13.053Z,167.96
2024-04-08T11:03:13.138Z,165.79
2024-04-08T11:04:27.970Z,167.29
2024-04-08T11:05:13.058Z,167.48
2024-04-08T11:06:13.163Z,167.98
2024-04-08T11:07:16.001Z,168.24
2024-04-08T11:08:13.077Z,167.48
2024-04-08T11:09:13.101Z,167.83
2024-04-08T11:10:27.976Z,168.44
2024-04-08T11:11:13.088Z,167.50
2024-04-08T11:12:13.567Z,168.12
2024-04-08T11:13:27.978Z,167.79
2024-04-08T11:14:13.080Z,167.40
2024-04-08T11:15:13.147Z,165.70
2024-04-08T11:16:13.475Z,161.43
2024-04-08T11:17:13.082Z,157.55
2024-04-08T11:18:13.137Z,154.10
2024-04-08T11:19:13.088Z,153.08
2024-04-08T11:20:13.094Z,153.98
2024-04-08T11:21:13.147Z,155.20
2024-04-08T11:22:13.094Z,155.93
2024-04-08T11:23:13.095Z,156.39
2024-04-08T11:24:13.280Z,158.77
2024-04-08T11:25:13.104Z,158.89
2024-04-08T11:26:13.109Z,160.12
2024-04-08T11:27:13.146Z,160.49
2024-04-08T11:28:13.111Z,159.03
2024-04-08T11:29:13.112Z,158.96
2024-04-08T11:30:13.172Z,158.52
2024-04-08T11:31:13.139Z,157.89
2024-04-08T11:32:13.128Z,156.80
2024-04-08T11:33:13.212Z,156.64
2024-04-08T11:34:13.120Z,157.34
2024-04-08T11:35:28.094Z,157.13
2024-04-08T11:36:13.154Z,157.32
2024-04-08T11:37:13.128Z,157.96
2024-04-08T11:38:44.007Z,158.56
2024-04-08T11:39:13.155Z,157.36
2024-04-08T11:40:13.234Z,158.76
2024-04-08T11:41:13.163Z,160.65
2024-04-08T11:42:13.239Z,161.96
2024-04-08T11:43:13.159Z,163.67
2024-04-08T11:44:13.255Z,163.53
2024-04-08T11:45:13.213Z,161.00
2024-04-08T11:46:13.392Z,159.73
2024-04-08T11:47:13.150Z,158.45
2024-04-08T11:48:13.224Z,157.75
2024-04-08T11:49:14.026Z,156.84
2024-04-08T11:50:13.145Z,155.67
2024-04-08T11:51:13.188Z,152.96
2024-04-08T11:52:13.177Z,151.43
2024-04-08T11:53:13.151Z,150.36
2024-04-08T11:54:13.198Z,148.73
2024-04-08T11:55:13.150Z,148.07
2024-04-08T11:56:13.156Z,147.88
2024-04-08T11:57:13.237Z,145.73
2024-04-08T11:58:13.244Z,145.24
2024-04-08T11:59:13.179Z,143.24
2024-04-08T12:00:13.188Z,141.51
2024-04-08T12:01:14.630Z,141.96
2024-04-08T12:02:13.166Z,140.38
2024-04-08T12:03:35.022Z,138.45
2024-04-08T12:04:13.180Z,138.65
2024-04-08T12:05:13.182Z,139.33
2024-04-08T12:06:48.496Z,140.00
2024-04-08T12:07:13.183Z,138.64
2024-04-08T12:08:13.186Z,139.89
2024-04-08T12:09:13.328Z,141.38
2024-04-08T12:10:13.316Z,142.48
2024-04-08T12:11:13.440Z,142.82
2024-04-08T12:12:13.416Z,139.33
2024-04-08T12:13:13.417Z,134.13
2024-04-08T12:14:13.434Z,131.22
2024-04-08T12:15:13.467Z,129.83
2024-04-08T12:16:13.465Z,129.59
2024-04-08T12:17:13.483Z,130.15
2024-04-08T12:18:13.530Z,128.36
2024-04-08T12:19:13.494Z,124.33
2024-04-08T12:20:13.502Z,121.54
2024-04-08T12:21:13.635Z,119.00
2024-04-08T12:22:19.040Z,120.82
2024-04-08T12:23:13.664Z,120.87
2024-04-08T12:24:13.849Z,120.88
2024-04-08T12:25:16.494Z,119.79
2024-04-08T12:26:13.819Z,118.78
2024-04-08T12:27:13.815Z,118.44
2024-04-08T12:28:28.498Z,118.75
2024-04-08T12:29:13.800Z,118.90
2024-04-08T12:30:13.855Z,119.43
2024-04-08T12:31:42.520Z,120.02
2024-04-08T12:32:13.814Z,119.01
2024-04-08T12:33:13.939Z,120.41